createdAt,value
2023-12-30T00:01:03.811Z,98.50
2023-12-30T00:03:30.996Z,98.50
2023-12-30T00:05:58.086Z,98.50
2023-12-30T00:08:25.217Z,98.60
2023-12-30T00:10:52.208Z,98.70
2023-12-30T00:13:19.282Z,98.70
2023-12-30T00:15:46.481Z,98.60
2023-12-30T00:18:13.697Z,98.60
2023-12-30T00:20:40.755Z,98.60
2023-12-30T00:23:08.452Z,98.70
2023-12-30T00:25:35.959Z,98.70
2023-12-30T00:28:03.830Z,98.70
2023-12-30T00:30:31.020Z,98.70
2023-12-30T00:32:58.149Z,98.80
2023-12-30T00:35:25.196Z,98.80
2023-12-30T00:37:54.478Z,98.80
2023-12-30T00:40:26.725Z,98.80
2023-12-30T00:42:54.773Z,98.80
2023-12-30T00:45:22.081Z,98.80
2023-12-30T00:47:49.213Z,98.80
2023-12-30T00:50:17.424Z,98.90
2023-12-30T00:52:44.435Z,98.80
2023-12-30T00:55:11.780Z,98.60
2023-12-30T00:57:38.942Z,98.60
2023-12-30T01:00:07.120Z,98.50
2023-12-30T01:02:34.244Z,98.50
2023-12-30T01:05:01.331Z,98.50
2023-12-30T01:07:28.482Z,98.60
2023-12-30T01:09:55.577Z,98.70
2023-12-30T01:12:22.730Z,98.70
2023-12-30T01:14:49.758Z,98.70
2023-12-30T01:17:16.865Z,98.80
2023-12-30T01:19:44.139Z,99.00
2023-12-30T01:22:12.373Z,99.00
2023-12-30T01:24:39.498Z,99.10
2023-12-30T01:27:06.595Z,99.10
2023-12-30T01:29:33.597Z,99.10
2023-12-30T01:32:00.556Z,99.10
2023-12-30T01:34:27.835Z,99.10
2023-12-30T01:36:55.984Z,99.10
2023-12-30T01:39:23.096Z,99.20
2023-12-30T01:41:52.873Z,99.20
2023-12-30T01:44:19.996Z,99.30
2023-12-30T01:46:47.547Z,99.20
2023-12-30T01:49:15.380Z,99.30
2023-12-30T01:51:42.653Z,99.20
2023-12-30T01:54:10.575Z,99.30
2023-12-30T01:56:37.726Z,99.30
2023-12-30T01:59:06.622Z,99.40
2023-12-30T02:01:34.597Z,99.40
2023-12-30T02:04:02.315Z,99.40
2023-12-30T02:06:29.372Z,99.40
2023-12-30T02:08:56.662Z,99.40
2023-12-30T02:11:23.779Z,99.50
2023-12-30T02:13:51.123Z,99.50
2023-12-30T02:16:18.282Z,99.50
2023-12-30T02:18:45.596Z,99.50
2023-12-30T02:21:12.836Z,99.50
2023-12-30T02:23:41.489Z,99.50
2023-12-30T02:26:11.651Z,99.60
2023-12-30T02:28:38.721Z,99.60
2023-12-30T02:31:05.961Z,99.60
2023-12-30T02:33:33.092Z,99.60
2023-12-30T02:36:00.175Z,99.60
2023-12-30T02:38:27.192Z,99.60
2023-12-30T02:40:54.169Z,99.70
2023-12-30T02:43:21.328Z,99.70
2023-12-30T02:45:48.593Z,99.80
2023-12-30T02:48:15.953Z,99.80
2023-12-30T02:50:43.127Z,99.80
2023-12-30T02:53:10.197Z,99.80
2023-12-30T02:55:37.199Z,99.80
2023-12-30T02:58:04.438Z,99.80
2023-12-30T03:00:31.475Z,99.80
2023-12-30T03:02:59.908Z,99.90
2023-12-30T03:05:29.355Z,99.80
2023-12-30T03:07:58.953Z,99.80
2023-12-30T03:10:26.295Z,99.80
2023-12-30T03:12:53.487Z,99.80
2023-12-30T03:15:21.773Z,99.80
2023-12-30T03:17:50.446Z,99.80
2023-12-30T03:20:17.525Z,99.80
2023-12-30T03:22:44.594Z,99.70
2023-12-30T03:25:12.239Z,99.80
2023-12-30T03:27:39.298Z,99.80
2023-12-30T03:30:07.332Z,99.80
2023-12-30T03:32:34.556Z,99.90
2023-12-30T03:35:01.768Z,99.90
2023-12-30T03:37:28.874Z,99.90
2023-12-30T03:39:56.187Z,99.90
2023-12-30T03:42:23.288Z,99.90
2023-12-30T03:44:50.373Z,99.90
2023-12-30T03:47:17.505Z,99.90
2023-12-30T03:49:44.713Z,99.90
2023-12-30T03:52:12.747Z,99.90
2023-12-30T03:54:39.784Z,99.90
2023-12-30T03:57:06.728Z,99.90
2023-12-30T03:59:33.897Z,99.90
2023-12-30T04:02:00.937Z,99.90
2023-12-30T04:04:29.728Z,99.90
2023-12-30T04:06:57.032Z,99.90
2023-12-30T04:09:25.145Z,99.90
2023-12-30T04:11:52.316Z,99.90
2023-12-30T04:14:19.488Z,99.90
2023-12-30T04:16:46.892Z,99.90
2023-12-30T04:19:14.186Z,99.90
2023-12-30T04:21:41.253Z,99.80
2023-12-30T04:24:08.702Z,99.90
2023-12-30T04:26:36.233Z,99.90
2023-12-30T04:29:03.285Z,99.90
2023-12-30T04:31:30.675Z,99.90
2023-12-30T04:33:57.851Z,99.90
2023-12-30T04:36:24.922Z,99.90
2023-12-30T04:38:52.848Z,99.90
2023-12-30T04:41:22.257Z,99.90
2023-12-30T04:43:49.565Z,99.90
2023-12-30T04:46:16.773Z,99.90
2023-12-30T04:48:43.993Z,99.90
2023-12-30T04:51:11.098Z,99.90
2023-12-30T04:53:39.468Z,99.90
2023-12-30T04:56:08.151Z,99.90
2023-12-30T04:58:35.586Z,99.90
2023-12-30T05:01:03.510Z,99.90
2023-12-30T05:03:30.687Z,99.90
2023-12-30T05:05:58.445Z,99.90
2023-12-30T05:08:25.582Z,99.90
2023-12-30T05:10:52.558Z,99.90
2023-12-30T05:13:19.788Z,99.90
2023-12-30T05:15:46.921Z,99.90
2023-12-30T05:18:14.313Z,99.90
2023-12-30T05:20:42.092Z,99.90
2023-12-30T05:23:09.570Z,99.90
2023-12-30T05:25:36.860Z,99.90
2023-12-30T05:28:04.175Z,99.90
2023-12-30T05:30:31.236Z,99.90
2023-12-30T05:32:58.293Z,99.90
2023-12-30T05:35:25.572Z,99.90
2023-12-30T05:37:52.622Z,99.90
2023-12-30T05:40:19.960Z,99.90
2023-12-30T05:42:47.019Z,99.90
2023-12-30T05:45:14.097Z,99.90
2023-12-30T05:47:41.067Z,99.90
2023-12-30T05:50:08.938Z,99.90
2023-12-30T05:52:36.012Z,99.90
2023-12-30T05:55:03.642Z,99.90
2023-12-30T05:57:32.539Z,99.90
2023-12-30T06:00:00.350Z,99.90
2023-12-30T06:02:27.446Z,99.90
2023-12-30T06:04:54.552Z,99.90
2023-12-30T06:07:21.697Z,99.90
2023-12-30T06:09:48.813Z,99.90
2023-12-30T06:12:15.933Z,99.90
2023-12-30T06:14:42.948Z,99.90
2023-12-30T06:17:10.022Z,99.90
2023-12-30T06:19:37.059Z,99.90
2023-12-30T06:22:04.213Z,99.90
2023-12-30T06:24:31.254Z,99.90
2023-12-30T06:26:58.331Z,99.90
2023-12-30T06:29:29.655Z,99.90
2023-12-30T06:31:58.704Z,99.90
2023-12-30T06:34:25.950Z,99.90
2023-12-30T06:36:53.005Z,99.90
2023-12-30T06:39:21.370Z,99.90
2023-12-30T06:41:48.468Z,99.90
2023-12-30T06:44:15.712Z,99.90
2023-12-30T06:46:42.811Z,99.90
2023-12-30T06:49:10.317Z,99.90
2023-12-30T06:51:37.592Z,99.90
2023-12-30T06:54:04.749Z,99.90
2023-12-30T06:56:31.831Z,99.90
2023-12-30T06:58:58.942Z,99.90
2023-12-30T07:01:26.593Z,99.90
2023-12-30T07:03:54.207Z,99.90
2023-12-30T07:06:21.757Z,99.90
2023-12-30T07:08:48.912Z,99.90
2023-12-30T07:11:15.948Z,99.90
2023-12-30T07:13:42.957Z,99.90
2023-12-30T07:16:10.082Z,99.90
2023-12-30T07:18:37.147Z,99.90
2023-12-30T07:21:04.418Z,99.90
2023-12-30T07:23:31.429Z,99.90
2023-12-30T07:25:58.554Z,99.90
2023-12-30T07:28:25.621Z,99.90
2023-12-30T07:30:52.771Z,99.90
2023-12-30T07:33:20.050Z,99.90
2023-12-30T07:35:47.618Z,99.90
2023-12-30T07:38:14.844Z,99.90
2023-12-30T07:40:41.972Z,99.90
2023-12-30T07:43:09.741Z,99.90
2023-12-30T07:45:36.879Z,99.90
2023-12-30T07:48:04.277Z,99.90
2023-12-30T07:50:31.296Z,99.90
2023-12-30T07:52:58.293Z,99.90
2023-12-30T07:55:25.780Z,99.90
2023-12-30T07:57:52.965Z,99.90
2023-12-30T08:00:20.123Z,99.90
2023-12-30T08:02:47.295Z,99.90
2023-12-30T08:05:14.493Z,99.90
2023-12-30T08:07:41.603Z,99.90
2023-12-30T08:10:09.139Z,99.90
2023-12-30T08:12:38.047Z,99.90
2023-12-30T08:15:05.820Z,99.90
2023-12-30T08:17:33.224Z,99.90
2023-12-30T08:20:00.396Z,99.90
2023-12-30T08:22:27.482Z,99.90
2023-12-30T08:24:55.247Z,99.90
2023-12-30T08:27:22.506Z,99.90
2023-12-30T08:29:49.945Z,99.90
2023-12-30T08:32:17.323Z,99.90
2023-12-30T08:34:44.402Z,99.90
2023-12-30T08:37:11.619Z,99.90
2023-12-30T08:39:39.113Z,99.90
2023-12-30T08:42:07.876Z,99.90
2023-12-30T08:44:39.096Z,99.90
2023-12-30T08:47:07.141Z,99.90
2023-12-30T08:49:34.510Z,99.90
2023-12-30T08:52:01.699Z,99.90
2023-12-30T08:54:29.196Z,99.90
2023-12-30T08:56:56.330Z,99.90
2023-12-30T08:59:25.791Z,99.90
2023-12-30T09:01:53.348Z,99.90
2023-12-30T09:04:20.794Z,99.90
2023-12-30T09:06:48.079Z,99.90
2023-12-30T09:09:15.114Z,99.90
2023-12-30T09:11:44.251Z,99.90
2023-12-30T09:14:12.039Z,99.90
2023-12-30T09:16:39.146Z,99.90
2023-12-30T09:19:06.510Z,99.90
2023-12-30T09:21:33.687Z,99.90
2023-12-30T09:24:00.691Z,99.90
2023-12-30T09:26:27.780Z,99.90
2023-12-30T09:28:54.808Z,99.90
2023-12-30T09:31:22.038Z,99.90
2023-12-30T09:33:50.403Z,99.90
2023-12-30T09:36:18.848Z,99.90
2023-12-30T09:38:45.988Z,99.90
2023-12-30T09:41:14.705Z,99.90
2023-12-30T09:43:43.329Z,99.90
2023-12-30T09:46:10.857Z,99.90
2023-12-30T09:48:40.764Z,99.90
2023-12-30T09:51:08.374Z,99.90
2023-12-30T09:53:35.471Z,99.90
2023-12-30T09:56:03.936Z,99.90
2023-12-30T09:58:32.977Z,99.90
2023-12-30T10:01:00.172Z,99.90
2023-12-30T10:03:29.794Z,99.90
2023-12-30T10:06:00.916Z,99.90
2023-12-30T10:08:29.836Z,99.90
2023-12-30T10:10:58.575Z,99.90
2023-12-30T10:13:28.782Z,99.80
2023-12-30T10:16:04.332Z,99.80
2023-12-30T10:18:39.055Z,99.70
2023-12-30T10:21:08.135Z,99.70
2023-12-30T10:23:36.174Z,99.70
2023-12-30T10:26:04.871Z,99.60
2023-12-30T10:28:32.069Z,99.50
2023-12-30T10:31:03.579Z,99.40
2023-12-30T10:33:31.701Z,99.30
2023-12-30T10:35:58.881Z,99.30
2023-12-30T10:38:27.453Z,99.20
2023-12-30T10:40:55.690Z,99.10
2023-12-30T10:43:23.221Z,99.00
2023-12-30T10:45:59.331Z,98.80
2023-12-30T10:48:33.172Z,98.60
2023-12-30T10:51:01.586Z,98.60
2023-12-30T10:53:32.583Z,98.70
2023-12-30T10:56:04.901Z,98.70
2023-12-30T10:58:38.104Z,98.60
2023-12-30T11:01:06.401Z,98.70
2023-12-30T11:03:35.986Z,98.70
2023-12-30T11:06:25.137Z,98.70
2023-12-30T11:09:00.330Z,98.70
2023-12-30T11:11:27.375Z,98.60
2023-12-30T11:13:58.454Z,98.60
2023-12-30T11:16:25.589Z,98.60
2023-12-30T11:19:02.671Z,98.60
2023-12-30T11:21:47.922Z,98.50
2023-12-30T11:24:16.489Z,98.40
2023-12-30T11:26:46.846Z,98.40
2023-12-30T11:29:18.324Z,98.50
2023-12-30T11:31:47.375Z,98.60
2023-12-30T11:34:19.116Z,98.60
2023-12-30T11:36:48.357Z,98.60
2023-12-30T11:39:29.421Z,98.40
2023-12-30T11:41:59.562Z,98.30
2023-12-30T11:44:28.667Z,98.30
2023-12-30T11:46:55.822Z,98.20
2023-12-30T11:49:24.530Z,98.20
2023-12-30T11:51:52.742Z,98.20
2023-12-30T11:54:19.782Z,98.10
2023-12-30T11:56:47.076Z,98.10
2023-12-30T11:59:14.440Z,98.10
2023-12-30T12:01:43.215Z,98.20
2023-12-30T12:04:11.283Z,98.30
2023-12-30T12:06:38.441Z,98.30
2023-12-30T12:09:07.338Z,98.20
2023-12-30T12:11:34.415Z,98.10
2023-12-30T12:14:03.034Z,98.00
2023-12-30T12:16:33.195Z,97.90
2023-12-30T12:19:04.851Z,97.80
2023-12-30T12:21:32.218Z,97.50
2023-12-30T12:23:59.283Z,97.50
2023-12-30T12:26:29.136Z,97.50
2023-12-30T12:28:59.210Z,97.50
2023-12-30T12:31:31.556Z,97.50
2023-12-30T12:33:58.909Z,97.40
2023-12-30T12:36:26.229Z,97.40
2023-12-30T12:38:53.365Z,97.40
2023-12-30T12:41:20.366Z,97.30
2023-12-30T12:43:47.796Z,97.20
2023-12-30T12:46:15.699Z,97.10
2023-12-30T12:48:42.891Z,96.90
2023-12-30T12:51:09.953Z,96.80
2023-12-30T12:53:37.304Z,96.80
2023-12-30T12:56:05.846Z,96.90
2023-12-30T12:58:34.105Z,96.80
2023-12-30T13:01:01.322Z,96.90
2023-12-30T13:03:28.672Z,96.90
2023-12-30T13:05:55.976Z,96.90
2023-12-30T13:08:26.234Z,97.00
2023-12-30T13:10:53.505Z,97.00
2023-12-30T13:13:20.910Z,96.90
2023-12-30T13:15:48.057Z,96.80
2023-12-30T13:18:20.071Z,96.80
2023-12-30T13:20:47.647Z,96.80
2023-12-30T13:23:16.922Z,96.90
2023-12-30T13:25:44.419Z,96.90
2023-12-30T13:28:12.645Z,97.00
2023-12-30T13:30:41.611Z,97.10
2023-12-30T13:33:11.843Z,97.10
2023-12-30T13:35:40.253Z,97.10
2023-12-30T13:38:11.168Z,97.40
2023-12-30T13:40:38.289Z,97.00
2023-12-30T13:43:10.429Z,97.20
2023-12-30T13:45:43.166Z,96.90
2023-12-30T13:48:25.423Z,97.20
2023-12-30T13:50:56.709Z,97.00
2023-12-30T13:53:25.775Z,97.00
2023-12-30T13:55:59.623Z,97.10
2023-12-30T13:58:26.885Z,97.10
2023-12-30T14:00:56.579Z,97.10
2023-12-30T14:03:26.695Z,97.20
2023-12-30T14:05:53.952Z,97.10
2023-12-30T14:08:31.944Z,97.00
2023-12-30T14:11:03.968Z,96.90
2023-12-30T14:13:31.547Z,96.90
2023-12-30T14:15:58.854Z,96.90
2023-12-30T14:18:26.260Z,97.30
2023-12-30T14:20:53.379Z,97.00
2023-12-30T14:23:20.397Z,97.00
2023-12-30T14:25:47.572Z,97.00
2023-12-30T14:28:15.170Z,96.90
2023-12-30T14:30:42.463Z,96.90
2023-12-30T14:33:10.191Z,96.80
2023-12-30T14:35:37.502Z,96.90
2023-12-30T14:38:06.029Z,96.90
2023-12-30T14:40:33.260Z,96.90
2023-12-30T14:43:00.709Z,97.00
2023-12-30T14:45:27.914Z,97.00
2023-12-30T14:47:55.045Z,97.00
2023-12-30T14:50:22.203Z,97.00
2023-12-30T14:52:49.363Z,97.00
2023-12-30T14:55:18.305Z,97.00
2023-12-30T14:57:46.892Z,97.00
2023-12-30T15:00:15.458Z,97.10
2023-12-30T15:02:44.308Z,97.00
2023-12-30T15:05:14.835Z,97.00
2023-12-30T15:07:43.717Z,97.00
2023-12-30T15:10:12.251Z,97.00
2023-12-30T15:12:40.775Z,97.00
2023-12-30T15:15:09.261Z,97.00
2023-12-30T15:17:36.565Z,97.00
2023-12-30T15:20:07.304Z,97.00
2023-12-30T15:22:36.126Z,97.00
2023-12-30T15:25:03.326Z,97.10
2023-12-30T15:27:31.092Z,97.10
2023-12-30T15:29:58.145Z,97.10
2023-12-30T15:32:25.328Z,97.10
2023-12-30T15:34:52.546Z,97.10
2023-12-30T15:37:19.628Z,97.20
2023-12-30T15:39:46.649Z,97.20
2023-12-30T15:42:13.934Z,97.10
2023-12-30T15:44:41.205Z,97.10
2023-12-30T15:47:11.025Z,97.20
2023-12-30T15:49:41.304Z,97.30
2023-12-30T15:52:10.924Z,97.40
2023-12-30T15:54:41.144Z,97.40
2023-12-30T15:57:08.164Z,97.50
2023-12-30T15:59:35.908Z,97.50
2023-12-30T16:02:03.560Z,97.60
2023-12-30T16:04:30.709Z,97.70
2023-12-30T16:06:58.050Z,97.70
2023-12-30T16:09:25.475Z,97.80
2023-12-30T16:11:52.611Z,97.90
2023-12-30T16:14:19.688Z,97.90
2023-12-30T16:16:47.258Z,97.90
2023-12-30T16:19:16.985Z,98.00
2023-12-30T16:21:46.442Z,98.30
2023-12-30T16:24:14.730Z,98.00
2023-12-30T16:26:42.412Z,98.00
2023-12-30T16:29:09.971Z,98.10
2023-12-30T16:31:37.941Z,98.10
2023-12-30T16:34:05.621Z,98.20
2023-12-30T16:36:34.391Z,98.20
2023-12-30T16:39:02.383Z,98.20
2023-12-30T16:41:29.505Z,98.20
2023-12-30T16:43:58.800Z,98.30
2023-12-30T16:46:26.355Z,98.30
2023-12-30T16:48:54.733Z,98.30
2023-12-30T16:51:22.117Z,98.30
2023-12-30T16:53:49.447Z,98.40
2023-12-30T16:56:16.942Z,98.50
2023-12-30T16:58:44.112Z,98.50
2023-12-30T17:01:11.268Z,98.60
2023-12-30T17:03:38.575Z,98.60
2023-12-30T17:06:06.054Z,98.60
2023-12-30T17:08:33.164Z,98.60
2023-12-30T17:11:00.440Z,98.60
2023-12-30T17:13:35.044Z,98.60
2023-12-30T17:16:07.386Z,98.60
2023-12-30T17:18:34.649Z,98.60
2023-12-30T17:21:01.741Z,98.60
2023-12-30T17:23:28.780Z,98.60
2023-12-30T17:25:55.919Z,98.60
2023-12-30T17:28:22.976Z,98.70
2023-12-30T17:30:50.795Z,98.70
2023-12-30T17:33:18.035Z,98.70
2023-12-30T17:35:45.186Z,98.70
2023-12-30T17:38:12.273Z,98.80
2023-12-30T17:40:39.341Z,98.80
2023-12-30T17:43:06.756Z,98.80
2023-12-30T17:45:33.936Z,98.90
2023-12-30T17:48:01.132Z,98.90
2023-12-30T17:50:29.731Z,98.90
2023-12-30T17:52:56.775Z,99.00
2023-12-30T17:55:23.930Z,99.00
2023-12-30T17:57:51.256Z,99.00
2023-12-30T18:00:18.689Z,99.00
2023-12-30T18:02:45.902Z,99.00
2023-12-30T18:05:13.230Z,99.00
2023-12-30T18:07:40.527Z,99.10
2023-12-30T18:10:07.677Z,99.00
2023-12-30T18:12:34.820Z,99.00
2023-12-30T18:15:04.685Z,99.00
2023-12-30T18:17:32.992Z,99.10
2023-12-30T18:20:00.377Z,99.10
2023-12-30T18:22:27.861Z,99.10
2023-12-30T18:24:54.944Z,99.10
2023-12-30T18:27:23.803Z,99.20
2023-12-30T18:29:50.820Z,99.20
2023-12-30T18:32:17.883Z,99.10
2023-12-30T18:34:45.051Z,99.20
2023-12-30T18:37:15.352Z,99.20
2023-12-30T18:39:42.890Z,99.20
2023-12-30T18:42:10.237Z,99.30
2023-12-30T18:44:37.365Z,99.30
2023-12-30T18:47:04.553Z,99.40
2023-12-30T18:49:31.761Z,99.40
2023-12-30T18:51:58.779Z,99.40
2023-12-30T18:54:25.793Z,99.40
2023-12-30T18:56:52.861Z,99.40
2023-12-30T18:59:20.091Z,99.30
2023-12-30T19:01:47.231Z,99.40
2023-12-30T19:04:14.723Z,99.40
2023-12-30T19:06:41.831Z,99.40
2023-12-30T19:09:10.083Z,99.40
2023-12-30T19:11:37.147Z,99.40
2023-12-30T19:14:04.270Z,99.40
2023-12-30T19:16:31.585Z,99.40
2023-12-30T19:18:59.135Z,99.40
2023-12-30T19:21:26.334Z,99.40
2023-12-30T19:23:53.576Z,99.40
2023-12-30T19:26:20.855Z,99.40
2023-12-30T19:28:47.909Z,99.40
2023-12-30T19:31:15.093Z,99.40
2023-12-30T19:33:43.234Z,99.40
2023-12-30T19:36:11.746Z,99.30
2023-12-30T19:38:39.309Z,99.40
2023-12-30T19:41:06.365Z,99.50
2023-12-30T19:43:35.581Z,99.50
2023-12-30T19:46:07.163Z,99.60
2023-12-30T19:48:35.558Z,99.60
2023-12-30T19:51:05.082Z,99.60
2023-12-30T19:53:33.380Z,99.70
2023-12-30T19:56:02.039Z,99.80
2023-12-30T19:58:32.570Z,99.80
2023-12-30T20:00:59.922Z,99.80
2023-12-30T20:03:27.228Z,99.70
2023-12-30T20:05:54.815Z,99.80
2023-12-30T20:08:22.299Z,99.80
2023-12-30T20:10:49.790Z,99.90
2023-12-30T20:13:17.068Z,99.90
2023-12-30T20:15:44.177Z,99.90
2023-12-30T20:18:11.510Z,99.90
2023-12-30T20:20:38.776Z,99.90
2023-12-30T20:23:06.577Z,99.90
2023-12-30T20:25:34.047Z,99.90
2023-12-30T20:28:01.589Z,99.90
2023-12-30T20:30:28.952Z,99.90
2023-12-30T20:32:56.196Z,99.90
2023-12-30T20:35:23.423Z,99.90
2023-12-30T20:37:50.608Z,99.90
2023-12-30T20:40:18.955Z,99.90
2023-12-30T20:42:46.166Z,99.90
2023-12-30T20:45:15.364Z,99.90
2023-12-30T20:47:42.611Z,99.90
2023-12-30T20:50:10.046Z,99.90
2023-12-30T20:52:39.112Z,99.90
2023-12-30T20:55:07.702Z,99.90
2023-12-30T20:57:34.862Z,99.90
2023-12-30T21:00:01.979Z,99.90
2023-12-30T21:02:29.506Z,99.90
2023-12-30T21:04:58.078Z,99.90
2023-12-30T21:07:25.359Z,99.90
2023-12-30T21:09:52.444Z,99.90
2023-12-30T21:12:19.537Z,99.90
2023-12-30T21:14:46.582Z,99.90
2023-12-30T21:17:13.840Z,99.90
2023-12-30T21:19:41.553Z,99.90
2023-12-30T21:22:09.410Z,99.90
2023-12-30T21:24:40.335Z,99.90
2023-12-30T21:27:07.503Z,99.90
2023-12-30T21:29:37.756Z,99.90
2023-12-30T21:32:05.769Z,99.90
2023-12-30T21:34:32.924Z,99.90
2023-12-30T21:36:59.964Z,99.90
2023-12-30T21:39:27.173Z,99.90
2023-12-30T21:41:54.263Z,99.90
2023-12-30T21:44:21.638Z,99.90
2023-12-30T21:46:48.795Z,99.90
2023-12-30T21:49:16.832Z,99.90
2023-12-30T21:51:44.908Z,99.90
2023-12-30T21:54:13.558Z,99.90
2023-12-30T21:56:41.229Z,99.90
2023-12-30T21:59:08.721Z,99.90
2023-12-30T22:01:37.357Z,99.90
2023-12-30T22:04:05.617Z,99.90
2023-12-30T22:06:33.324Z,99.90
2023-12-30T22:09:00.408Z,99.90
2023-12-30T22:11:28.814Z,99.90
2023-12-30T22:13:56.839Z,99.90
2023-12-30T22:16:24.203Z,99.90
2023-12-30T22:18:51.471Z,99.90
2023-12-30T22:21:19.277Z,99.90
2023-12-30T22:23:48.132Z,99.90
2023-12-30T22:26:20.572Z,99.90
2023-12-30T22:28:48.067Z,99.90
2023-12-30T22:31:15.292Z,99.90
2023-12-30T22:33:43.129Z,99.90
2023-12-30T22:36:10.305Z,99.90
2023-12-30T22:38:38.288Z,99.90
2023-12-30T22:41:05.315Z,99.90
2023-12-30T22:43:32.427Z,99.90
2023-12-30T22:45:59.487Z,99.90
2023-12-30T22:48:26.509Z,99.90
2023-12-30T22:50:53.642Z,99.90
2023-12-30T22:53:20.719Z,99.90
2023-12-30T22:55:47.839Z,99.90
2023-12-30T22:58:14.955Z,99.90
2023-12-30T23:00:42.040Z,99.90
2023-12-30T23:03:09.406Z,99.90
2023-12-30T23:05:36.659Z,99.90
2023-12-30T23:08:03.869Z,99.90
2023-12-30T23:10:31.082Z,99.90
2023-12-30T23:12:58.097Z,99.90
2023-12-30T23:15:25.145Z,99.90
2023-12-30T23:17:52.550Z,99.90
2023-12-30T23:20:22.474Z,99.90
2023-12-30T23:22:49.789Z,99.90
2023-12-30T23:25:17.104Z,99.90
2023-12-30T23:27:45.087Z,99.90
2023-12-30T23:30:13.178Z,99.90
2023-12-30T23:32:40.264Z,99.90
2023-12-30T23:35:07.948Z,99.90
2023-12-30T23:37:35.147Z,99.90
2023-12-30T23:40:02.500Z,99.90
2023-12-30T23:42:29.608Z,99.90
2023-12-30T23:44:56.660Z,99.90
2023-12-30T23:47:23.756Z,99.90
2023-12-30T23:49:50.792Z,99.90
2023-12-30T23:52:18.520Z,99.90
2023-12-30T23:54:45.738Z,99.90
2023-12-30T23:57:12.815Z,99.90
2023-12-30T23:59:42.560Z,99.90
